sensor_id;sensor_type;location;lat;lon;timestamp;P1;durP1;ratioP1;P2;durP2;ratioP2
2892;SDS011;1456;51.840;12.184;2023-07-28T00:00:10;0.30;;;0.30;;
2892;SDS011;1456;51.840;12.184;2023-07-28T00:02:36;0.40;;;0.40;;
2892;SDS011;1456;51.840;12.184;2023-07-28T00:05:02;0.77;;;0.77;;
2892;SDS011;1456;51.840;12.184;2023-07-28T00:07:28;0.30;;;0.30;;
2892;SDS011;1456;51.840;12.184;2023-07-28T00:09:54;0.40;;;0.40;;
2892;SDS011;1456;51.840;12.184;2023-07-28T00:12:21;5.27;;;0.50;;
2892;SDS011;1456;51.840;12.184;2023-07-28T00:14:47;0.50;;;0.30;;
2892;SDS011;1456;51.840;12.184;2023-07-28T00:17:14;0.30;;;0.30;;
2892;SDS011;1456;51.840;12.184;2023-07-28T00:19:39;0.50;;;0.40;;
2892;SDS011;1456;51.840;12.184;2023-07-28T00:22:05;0.40;;;0.37;;
2892;SDS011;1456;51.840;12.184;2023-07-28T00:24:31;0.30;;;0.30;;
2892;SDS011;1456;51.840;12.184;2023-07-28T00:26:57;0.37;;;0.37;;
2892;SDS011;1456;51.840;12.184;2023-07-28T00:29:23;0.30;;;0.30;;
2892;SDS011;1456;51.840;12.184;2023-07-28T00:31:48;0.40;;;0.30;;
2892;SDS011;1456;51.840;12.184;2023-07-28T00:34:16;2.10;;;0.30;;
2892;SDS011;1456;51.840;12.184;2023-07-28T00:36:43;0.30;;;0.30;;
2892;SDS011;1456;51.840;12.184;2023-07-28T00:39:08;0.50;;;0.30;;
2892;SDS011;1456;51.840;12.184;2023-07-28T00:41:34;0.30;;;0.30;;
2892;SDS011;1456;51.840;12.184;2023-07-28T00:43:59;0.30;;;0.30;;
2892;SDS011;1456;51.840;12.184;2023-07-28T00:46:26;0.30;;;0.30;;
2892;SDS011;1456;51.840;12.184;2023-07-28T00:48:52;0.40;;;0.30;;
2892;SDS011;1456;51.840;12.184;2023-07-28T00:51:18;0.40;;;0.40;;
2892;SDS011;1456;51.840;12.184;2023-07-28T00:53:45;0.67;;;0.30;;
2892;SDS011;1456;51.840;12.184;2023-07-28T00:56:11;0.60;;;0.60;;
2892;SDS011;1456;51.840;12.184;2023-07-28T00:58:37;0.30;;;0.30;;
2892;SDS011;1456;51.840;12.184;2023-07-28T01:01:03;0.30;;;0.30;;
2892;SDS011;1456;51.840;12.184;2023-07-28T01:03:28;0.30;;;0.30;;
2892;SDS011;1456;51.840;12.184;2023-07-28T01:11:21;0.53;;;0.40;;
2892;SDS011;1456;51.840;12.184;2023-07-28T01:13:47;0.43;;;0.40;;
2892;SDS011;1456;51.840;12.184;2023-07-28T01:16:12;0.40;;;0.40;;
2892;SDS011;1456;51.840;12.184;2023-07-28T01:18:38;0.40;;;0.30;;
2892;SDS011;1456;51.840;12.184;2023-07-28T01:21:05;0.30;;;0.30;;
2892;SDS011;1456;51.840;12.184;2023-07-28T01:23:46;0.33;;;0.33;;
2892;SDS011;1456;51.840;12.184;2023-07-28T01:26:39;0.50;;;0.50;;
2892;SDS011;1456;51.840;12.184;2023-07-28T01:29:05;0.50;;;0.40;;
2892;SDS011;1456;51.840;12.184;2023-07-28T01:31:31;0.40;;;0.40;;
2892;SDS011;1456;51.840;12.184;2023-07-28T01:33:58;0.40;;;0.40;;
2892;SDS011;1456;51.840;12.184;2023-07-28T01:36:23;1.70;;;1.60;;
2892;SDS011;1456;51.840;12.184;2023-07-28T01:38:50;0.40;;;0.30;;
2892;SDS011;1456;51.840;12.184;2023-07-28T01:41:16;0.60;;;0.40;;
2892;SDS011;1456;51.840;12.184;2023-07-28T01:43:41;0.30;;;0.30;;
2892;SDS011;1456;51.840;12.184;2023-07-28T01:46:07;0.40;;;0.40;;
2892;SDS011;1456;51.840;12.184;2023-07-28T01:48:34;0.30;;;0.30;;
2892;SDS011;1456;51.840;12.184;2023-07-28T01:51:00;0.37;;;0.37;;
2892;SDS011;1456;51.840;12.184;2023-07-28T01:53:25;0.37;;;0.37;;
2892;SDS011;1456;51.840;12.184;2023-07-28T01:55:51;0.30;;;0.30;;
2892;SDS011;1456;51.840;12.184;2023-07-28T01:58:17;0.30;;;0.30;;
2892;SDS011;1456;51.840;12.184;2023-07-28T02:00:42;0.30;;;0.30;;
2892;SDS011;1456;51.840;12.184;2023-07-28T02:03:08;0.40;;;0.40;;
2892;SDS011;1456;51.840;12.184;2023-07-28T02:05:35;0.60;;;0.30;;
2892;SDS011;1456;51.840;12.184;2023-07-28T02:08:00;0.40;;;0.40;;
2892;SDS011;1456;51.840;12.184;2023-07-28T02:10:26;2.90;;;1.43;;
2892;SDS011;1456;51.840;12.184;2023-07-28T02:12:54;0.60;;;0.30;;
2892;SDS011;1456;51.840;12.184;2023-07-28T02:15:20;0.30;;;0.30;;
2892;SDS011;1456;51.840;12.184;2023-07-28T02:17:46;1.07;;;0.83;;
2892;SDS011;1456;51.840;12.184;2023-07-28T02:20:12;0.50;;;0.50;;
2892;SDS011;1456;51.840;12.184;2023-07-28T02:22:40;0.30;;;0.30;;
2892;SDS011;1456;51.840;12.184;2023-07-28T02:25:06;0.93;;;0.30;;
2892;SDS011;1456;51.840;12.184;2023-07-28T02:27:32;0.30;;;0.30;;
2892;SDS011;1456;51.840;12.184;2023-07-28T02:29:58;1.40;;;0.67;;
2892;SDS011;1456;51.840;12.184;2023-07-28T02:32:24;0.40;;;0.30;;
2892;SDS011;1456;51.840;12.184;2023-07-28T02:34:50;0.40;;;0.40;;
2892;SDS011;1456;51.840;12.184;2023-07-28T02:37:16;0.43;;;0.43;;
2892;SDS011;1456;51.840;12.184;2023-07-28T02:39:42;59.20;;;2.10;;
2892;SDS011;1456;51.840;12.184;2023-07-28T03:35:37;0.30;;;0.30;;
2892;SDS011;1456;51.840;12.184;2023-07-28T13:41:59;24.70;;;24.10;;
2892;SDS011;1456;51.840;12.184;2023-07-28T13:44:25;23.90;;;23.30;;
2892;SDS011;1456;51.840;12.184;2023-07-28T13:46:50;25.50;;;24.80;;
2892;SDS011;1456;51.840;12.184;2023-07-28T13:49:16;12.40;;;12.10;;
2892;SDS011;1456;51.840;12.184;2023-07-28T13:51:44;12.23;;;11.93;;
2892;SDS011;1456;51.840;12.184;2023-07-28T13:54:10;27.67;;;26.87;;
2892;SDS011;1456;51.840;12.184;2023-07-28T13:56:36;27.30;;;26.50;;
2892;SDS011;1456;51.840;12.184;2023-07-28T13:59:03;12.27;;;11.97;;
2892;SDS011;1456;51.840;12.184;2023-07-28T14:01:31;12.73;;;12.30;;
2892;SDS011;1456;51.840;12.184;2023-07-28T14:03:57;10.37;;;10.17;;
2892;SDS011;1456;51.840;12.184;2023-07-28T14:06:23;10.70;;;10.50;;
2892;SDS011;1456;51.840;12.184;2023-07-28T14:08:48;10.70;;;10.50;;
2892;SDS011;1456;51.840;12.184;2023-07-28T14:11:14;12.07;;;11.77;;
2892;SDS011;1456;51.840;12.184;2023-07-28T14:13:47;12.47;;;11.87;;
2892;SDS011;1456;51.840;12.184;2023-07-28T14:16:13;11.77;;;11.47;;
2892;SDS011;1456;51.840;12.184;2023-07-28T14:18:38;11.47;;;11.27;;
2892;SDS011;1456;51.840;12.184;2023-07-28T14:21:05;11.60;;;11.40;;
2892;SDS011;1456;51.840;12.184;2023-07-28T14:23:32;9.90;;;9.70;;
2892;SDS011;1456;51.840;12.184;2023-07-28T14:25:59;10.20;;;10.10;;
2892;SDS011;1456;51.840;12.184;2023-07-28T14:28:25;11.53;;;11.23;;
2892;SDS011;1456;51.840;12.184;2023-07-28T14:30:52;12.30;;;11.43;;
2892;SDS011;1456;51.840;12.184;2023-07-28T14:33:18;11.90;;;11.40;;
2892;SDS011;1456;51.840;12.184;2023-07-28T14:35:44;10.13;;;10.03;;
2892;SDS011;1456;51.840;12.184;2023-07-28T14:38:12;11.63;;;11.33;;
2892;SDS011;1456;51.840;12.184;2023-07-28T14:40:39;12.07;;;11.00;;
2892;SDS011;1456;51.840;12.184;2023-07-28T14:43:06;12.00;;;11.70;;
2892;SDS011;1456;51.840;12.184;2023-07-28T14:45:34;11.53;;;11.33;;
2892;SDS011;1456;51.840;12.184;2023-07-28T14:48:01;11.77;;;11.50;;
2892;SDS011;1456;51.840;12.184;2023-07-28T14:50:29;11.70;;;11.50;;
2892;SDS011;1456;51.840;12.184;2023-07-28T14:52:58;10.00;;;9.80;;
2892;SDS011;1456;51.840;12.184;2023-07-28T14:55:26;11.33;;;11.13;;
2892;SDS011;1456;51.840;12.184;2023-07-28T14:57:52;11.70;;;11.40;;
2892;SDS011;1456;51.840;12.184;2023-07-28T15:00:18;11.00;;;10.80;;
2892;SDS011;1456;51.840;12.184;2023-07-28T15:02:43;10.87;;;10.67;;
2892;SDS011;1456;51.840;12.184;2023-07-28T15:05:11;11.57;;;11.27;;
2892;SDS011;1456;51.840;12.184;2023-07-28T15:07:36;11.43;;;11.23;;
2892;SDS011;1456;51.840;12.184;2023-07-28T15:10:02;11.20;;;11.00;;
2892;SDS011;1456;51.840;12.184;2023-07-28T15:12:30;11.13;;;10.93;;
2892;SDS011;1456;51.840;12.184;2023-07-28T15:14:56;11.07;;;10.87;;
2892;SDS011;1456;51.840;12.184;2023-07-28T15:17:21;11.60;;;11.20;;
2892;SDS011;1456;51.840;12.184;2023-07-28T15:19:47;11.37;;;11.17;;
2892;SDS011;1456;51.840;12.184;2023-07-28T15:22:13;12.30;;;12.00;;
2892;SDS011;1456;51.840;12.184;2023-07-28T15:24:40;12.07;;;11.87;;
2892;SDS011;1456;51.840;12.184;2023-07-28T15:27:07;12.90;;;12.60;;
2892;SDS011;1456;51.840;12.184;2023-07-28T15:29:32;20.70;;;20.20;;
2892;SDS011;1456;51.840;12.184;2023-07-28T15:31:58;22.37;;;21.77;;
2892;SDS011;1456;51.840;12.184;2023-07-28T15:34:24;23.60;;;23.00;;
2892;SDS011;1456;51.840;12.184;2023-07-28T15:36:50;27.30;;;26.50;;
2892;SDS011;1456;51.840;12.184;2023-07-28T15:39:18;27.00;;;26.20;;
2892;SDS011;1456;51.840;12.184;2023-07-28T15:41:47;25.20;;;24.50;;
2892;SDS011;1456;51.840;12.184;2023-07-28T15:44:13;25.20;;;24.50;;
2892;SDS011;1456;51.840;12.184;2023-07-28T15:46:41;24.13;;;23.53;;
2892;SDS011;1456;51.840;12.184;2023-07-28T15:49:08;25.03;;;24.43;;
2892;SDS011;1456;51.840;12.184;2023-07-28T15:51:34;31.40;;;29.57;;
2892;SDS011;1456;51.840;12.184;2023-07-28T15:54:01;25.10;;;24.50;;
2892;SDS011;1456;51.840;12.184;2023-07-28T15:56:29;24.20;;;23.60;;
2892;SDS011;1456;51.840;12.184;2023-07-28T15:58:56;25.87;;;25.13;;
2892;SDS011;1456;51.840;12.184;2023-07-28T16:01:24;34.60;;;32.97;;
2892;SDS011;1456;51.840;12.184;2023-07-28T16:03:51;30.03;;;28.63;;
2892;SDS011;1456;51.840;12.184;2023-07-28T16:06:17;27.53;;;26.43;;
2892;SDS011;1456;51.840;12.184;2023-07-28T16:08:43;24.87;;;24.17;;
2892;SDS011;1456;51.840;12.184;2023-07-28T16:11:12;22.60;;;22.10;;
2892;SDS011;1456;51.840;12.184;2023-07-28T16:13:38;23.60;;;23.00;;
2892;SDS011;1456;51.840;12.184;2023-07-28T16:16:03;22.87;;;22.27;;
2892;SDS011;1456;51.840;12.184;2023-07-28T16:18:31;23.17;;;22.57;;
2892;SDS011;1456;51.840;12.184;2023-07-28T16:20:57;25.17;;;24.47;;
2892;SDS011;1456;51.840;12.184;2023-07-28T16:23:22;23.83;;;23.13;;
2892;SDS011;1456;51.840;12.184;2023-07-28T16:25:50;23.60;;;23.00;;
2892;SDS011;1456;51.840;12.184;2023-07-28T16:28:16;23.40;;;22.80;;
2892;SDS011;1456;51.840;12.184;2023-07-28T16:30:41;25.83;;;24.97;;
2892;SDS011;1456;51.840;12.184;2023-07-28T16:33:09;24.60;;;24.00;;
2892;SDS011;1456;51.840;12.184;2023-07-28T16:35:36;23.10;;;22.50;;
2892;SDS011;1456;51.840;12.184;2023-07-28T16:38:02;22.83;;;22.33;;
2892;SDS011;1456;51.840;12.184;2023-07-28T16:40:28;24.63;;;24.03;;
2892;SDS011;1456;51.840;12.184;2023-07-28T16:42:54;24.40;;;23.70;;
2892;SDS011;1456;51.840;12.184;2023-07-28T16:45:20;26.40;;;25.80;;
2892;SDS011;1456;51.840;12.184;2023-07-28T16:47:46;24.07;;;23.47;;
2892;SDS011;1456;51.840;12.184;2023-07-28T16:50:13;25.53;;;24.83;;
2892;SDS011;1456;51.840;12.184;2023-07-28T16:52:39;28.00;;;27.30;;
2892;SDS011;1456;51.840;12.184;2023-07-28T16:55:06;25.50;;;24.90;;
2892;SDS011;1456;51.840;12.184;2023-07-28T16:57:33;26.90;;;26.30;;
2892;SDS011;1456;51.840;12.184;2023-07-28T16:59:59;27.00;;;26.40;;
2892;SDS011;1456;51.840;12.184;2023-07-28T17:02:26;9.80;;;9.60;;
2892;SDS011;1456;51.840;12.184;2023-07-28T17:04:52;9.60;;;9.50;;
2892;SDS011;1456;51.840;12.184;2023-07-28T17:07:18;10.27;;;10.10;;
2892;SDS011;1456;51.840;12.184;2023-07-28T17:09:43;10.40;;;10.20;;
2892;SDS011;1456;51.840;12.184;2023-07-28T17:12:09;10.23;;;10.00;;
2892;SDS011;1456;51.840;12.184;2023-07-28T17:14:35;9.90;;;9.70;;
2892;SDS011;1456;51.840;12.184;2023-07-28T17:17:00;10.27;;;10.07;;
2892;SDS011;1456;51.840;12.184;2023-07-28T17:19:26;10.43;;;10.13;;
2892;SDS011;1456;51.840;12.184;2023-07-28T17:21:54;10.50;;;10.30;;
2892;SDS011;1456;51.840;12.184;2023-07-28T17:24:19;10.43;;;10.23;;
2892;SDS011;1456;51.840;12.184;2023-07-28T17:26:45;9.40;;;9.30;;
2892;SDS011;1456;51.840;12.184;2023-07-28T17:29:10;10.40;;;10.20;;
2892;SDS011;1456;51.840;12.184;2023-07-28T17:31:36;9.80;;;9.70;;
2892;SDS011;1456;51.840;12.184;2023-07-28T17:34:02;10.10;;;9.70;;
2892;SDS011;1456;51.840;12.184;2023-07-28T17:36:28;10.90;;;10.70;;
2892;SDS011;1456;51.840;12.184;2023-07-28T17:38:54;11.03;;;10.83;;
2892;SDS011;1456;51.840;12.184;2023-07-28T17:41:20;9.90;;;9.80;;
2892;SDS011;1456;51.840;12.184;2023-07-28T17:43:46;9.93;;;9.83;;
2892;SDS011;1456;51.840;12.184;2023-07-28T17:46:11;9.13;;;9.00;;
2892;SDS011;1456;51.840;12.184;2023-07-28T17:48:37;9.80;;;9.60;;
2892;SDS011;1456;51.840;12.184;2023-07-28T17:51:03;10.47;;;10.17;;
2892;SDS011;1456;51.840;12.184;2023-07-28T17:53:29;9.23;;;9.10;;
2892;SDS011;1456;51.840;12.184;2023-07-28T17:55:58;9.33;;;9.13;;
2892;SDS011;1456;51.840;12.184;2023-07-28T17:58:24;9.40;;;9.30;;
2892;SDS011;1456;51.840;12.184;2023-07-28T18:00:51;10.00;;;9.80;;
2892;SDS011;1456;51.840;12.184;2023-07-28T18:03:16;9.90;;;9.70;;
2892;SDS011;1456;51.840;12.184;2023-07-28T18:05:42;10.23;;;10.03;;
2892;SDS011;1456;51.840;12.184;2023-07-28T18:08:09;10.10;;;10.00;;
2892;SDS011;1456;51.840;12.184;2023-07-28T18:10:38;10.40;;;10.20;;
2892;SDS011;1456;51.840;12.184;2023-07-28T18:13:04;10.10;;;9.90;;
2892;SDS011;1456;51.840;12.184;2023-07-28T18:15:30;9.93;;;9.73;;
2892;SDS011;1456;51.840;12.184;2023-07-28T18:17:55;9.57;;;9.47;;
2892;SDS011;1456;51.840;12.184;2023-07-28T18:20:21;10.10;;;9.90;;
2892;SDS011;1456;51.840;12.184;2023-07-28T18:22:48;10.30;;;10.10;;
2892;SDS011;1456;51.840;12.184;2023-07-28T18:25:13;9.63;;;9.53;;
2892;SDS011;1456;51.840;12.184;2023-07-28T18:27:42;9.57;;;9.47;;
2892;SDS011;1456;51.840;12.184;2023-07-28T18:30:08;13.10;;;12.70;;
2892;SDS011;1456;51.840;12.184;2023-07-28T18:32:35;10.97;;;10.20;;
2892;SDS011;1456;51.840;12.184;2023-07-28T18:35:01;9.00;;;8.90;;
2892;SDS011;1456;51.840;12.184;2023-07-28T18:37:28;9.30;;;9.10;;
2892;SDS011;1456;51.840;12.184;2023-07-28T18:39:53;10.00;;;9.80;;
2892;SDS011;1456;51.840;12.184;2023-07-28T18:42:21;9.20;;;9.00;;
2892;SDS011;1456;51.840;12.184;2023-07-28T18:44:46;9.03;;;8.93;;
2892;SDS011;1456;51.840;12.184;2023-07-28T18:47:12;9.00;;;8.90;;
2892;SDS011;1456;51.840;12.184;2023-07-28T18:49:38;9.83;;;9.73;;
2892;SDS011;1456;51.840;12.184;2023-07-28T18:52:03;9.10;;;9.00;;
2892;SDS011;1456;51.840;12.184;2023-07-28T18:54:29;9.40;;;9.30;;
2892;SDS011;1456;51.840;12.184;2023-07-28T18:56:56;8.40;;;8.30;;
2892;SDS011;1456;51.840;12.184;2023-07-28T18:59:22;8.60;;;8.50;;
2892;SDS011;1456;51.840;12.184;2023-07-28T19:01:47;9.10;;;8.90;;
2892;SDS011;1456;51.840;12.184;2023-07-28T19:04:13;8.77;;;8.67;;
2892;SDS011;1456;51.840;12.184;2023-07-28T19:06:39;8.80;;;8.50;;
2892;SDS011;1456;51.840;12.184;2023-07-28T19:09:06;8.80;;;8.70;;
2892;SDS011;1456;51.840;12.184;2023-07-28T19:11:32;8.93;;;8.80;;
2892;SDS011;1456;51.840;12.184;2023-07-28T19:13:58;11.00;;;10.70;;
2892;SDS011;1456;51.840;12.184;2023-07-28T19:16:25;9.20;;;8.93;;
2892;SDS011;1456;51.840;12.184;2023-07-28T19:18:50;8.83;;;8.63;;
2892;SDS011;1456;51.840;12.184;2023-07-28T19:21:18;9.03;;;8.93;;
2892;SDS011;1456;51.840;12.184;2023-07-28T19:23:44;8.70;;;8.60;;
2892;SDS011;1456;51.840;12.184;2023-07-28T19:26:09;11.40;;;11.03;;
2892;SDS011;1456;51.840;12.184;2023-07-28T19:28:35;10.60;;;10.27;;
2892;SDS011;1456;51.840;12.184;2023-07-28T19:31:03;10.80;;;10.30;;
2892;SDS011;1456;51.840;12.184;2023-07-28T19:33:33;9.90;;;9.70;;
2892;SDS011;1456;51.840;12.184;2023-07-28T19:36:00;10.83;;;10.53;;
2892;SDS011;1456;51.840;12.184;2023-07-28T19:38:27;10.13;;;9.83;;
2892;SDS011;1456;51.840;12.184;2023-07-28T19:40:53;8.17;;;8.07;;
2892;SDS011;1456;51.840;12.184;2023-07-28T19:43:19;8.37;;;8.27;;
2892;SDS011;1456;51.840;12.184;2023-07-28T19:45:45;9.40;;;9.20;;
2892;SDS011;1456;51.840;12.184;2023-07-28T19:48:11;8.50;;;8.00;;
2892;SDS011;1456;51.840;12.184;2023-07-28T19:50:38;7.90;;;7.60;;
2892;SDS011;1456;51.840;12.184;2023-07-28T19:53:06;8.90;;;8.70;;
2892;SDS011;1456;51.840;12.184;2023-07-28T19:55:33;7.70;;;7.50;;
2892;SDS011;1456;51.840;12.184;2023-07-28T19:57:59;7.80;;;7.57;;
2892;SDS011;1456;51.840;12.184;2023-07-28T20:00:28;7.70;;;7.50;;
2892;SDS011;1456;51.840;12.184;2023-07-28T20:02:55;7.87;;;7.57;;
2892;SDS011;1456;51.840;12.184;2023-07-28T20:05:21;6.73;;;6.60;;
2892;SDS011;1456;51.840;12.184;2023-07-28T20:07:47;6.30;;;6.20;;
2892;SDS011;1456;51.840;12.184;2023-07-28T20:10:13;6.20;;;6.10;;
2892;SDS011;1456;51.840;12.184;2023-07-28T20:12:39;6.90;;;6.60;;
2892;SDS011;1456;51.840;12.184;2023-07-28T20:15:05;6.50;;;6.30;;
2892;SDS011;1456;51.840;12.184;2023-07-28T20:17:31;6.90;;;6.80;;
2892;SDS011;1456;51.840;12.184;2023-07-28T20:19:56;5.90;;;5.80;;
2892;SDS011;1456;51.840;12.184;2023-07-28T20:22:22;5.87;;;5.77;;
2892;SDS011;1456;51.840;12.184;2023-07-28T20:24:48;6.63;;;6.53;;
2892;SDS011;1456;51.840;12.184;2023-07-28T20:27:16;5.93;;;5.73;;
2892;SDS011;1456;51.840;12.184;2023-07-28T20:29:42;5.67;;;5.57;;
2892;SDS011;1456;51.840;12.184;2023-07-28T20:32:08;6.63;;;6.40;;
2892;SDS011;1456;51.840;12.184;2023-07-28T20:34:35;5.63;;;5.53;;
2892;SDS011;1456;51.840;12.184;2023-07-28T20:37:01;6.30;;;6.20;;
2892;SDS011;1456;51.840;12.184;2023-07-28T20:39:27;7.73;;;7.37;;
2892;SDS011;1456;51.840;12.184;2023-07-28T20:41:53;6.10;;;5.97;;
2892;SDS011;1456;51.840;12.184;2023-07-28T20:44:18;5.50;;;5.40;;
2892;SDS011;1456;51.840;12.184;2023-07-28T20:46:46;5.10;;;5.00;;
2892;SDS011;1456;51.840;12.184;2023-07-28T20:49:15;5.47;;;5.37;;
2892;SDS011;1456;51.840;12.184;2023-07-28T20:51:42;5.10;;;5.00;;
2892;SDS011;1456;51.840;12.184;2023-07-28T20:54:08;5.50;;;5.40;;
2892;SDS011;1456;51.840;12.184;2023-07-28T20:56:34;4.77;;;4.67;;
2892;SDS011;1456;51.840;12.184;2023-07-28T20:59:01;4.57;;;4.57;;
2892;SDS011;1456;51.840;12.184;2023-07-28T21:01:28;5.37;;;5.23;;
2892;SDS011;1456;51.840;12.184;2023-07-28T21:03:53;4.70;;;4.60;;
2892;SDS011;1456;51.840;12.184;2023-07-28T21:06:20;5.50;;;5.20;;
2892;SDS011;1456;51.840;12.184;2023-07-28T21:08:46;5.03;;;4.83;;
2892;SDS011;1456;51.840;12.184;2023-07-28T21:11:13;5.87;;;5.67;;
2892;SDS011;1456;51.840;12.184;2023-07-28T21:13:40;4.57;;;4.37;;
2892;SDS011;1456;51.840;12.184;2023-07-28T21:16:07;4.33;;;4.23;;
2892;SDS011;1456;51.840;12.184;2023-07-28T21:18:33;4.77;;;4.57;;
2892;SDS011;1456;51.840;12.184;2023-07-28T21:20:59;4.47;;;4.37;;
2892;SDS011;1456;51.840;12.184;2023-07-28T21:23:24;3.80;;;3.80;;
2892;SDS011;1456;51.840;12.184;2023-07-28T21:25:50;4.20;;;3.80;;
2892;SDS011;1456;51.840;12.184;2023-07-28T21:28:16;3.10;;;3.10;;
2892;SDS011;1456;51.840;12.184;2023-07-28T21:30:42;3.33;;;3.27;;
2892;SDS011;1456;51.840;12.184;2023-07-28T21:33:08;3.60;;;3.60;;
2892;SDS011;1456;51.840;12.184;2023-07-28T21:35:34;3.90;;;3.80;;
2892;SDS011;1456;51.840;12.184;2023-07-28T21:38:00;3.63;;;3.43;;
2892;SDS011;1456;51.840;12.184;2023-07-28T21:40:26;3.13;;;3.03;;
2892;SDS011;1456;51.840;12.184;2023-07-28T21:42:51;4.63;;;4.23;;
2892;SDS011;1456;51.840;12.184;2023-07-28T21:45:17;2.60;;;2.50;;
2892;SDS011;1456;51.840;12.184;2023-07-28T21:47:45;2.63;;;2.63;;
2892;SDS011;1456;51.840;12.184;2023-07-28T21:50:13;1.90;;;1.80;;
2892;SDS011;1456;51.840;12.184;2023-07-28T21:52:42;2.27;;;2.17;;
2892;SDS011;1456;51.840;12.184;2023-07-28T21:55:08;1.87;;;1.87;;
2892;SDS011;1456;51.840;12.184;2023-07-28T21:57:36;1.57;;;1.57;;
2892;SDS011;1456;51.840;12.184;2023-07-28T22:00:02;2.23;;;2.10;;
2892;SDS011;1456;51.840;12.184;2023-07-28T22:02:30;1.83;;;1.83;;
2892;SDS011;1456;51.840;12.184;2023-07-28T22:04:55;1.23;;;1.23;;
2892;SDS011;1456;51.840;12.184;2023-07-28T22:07:21;2.37;;;1.47;;
2892;SDS011;1456;51.840;12.184;2023-07-28T22:09:47;1.90;;;1.80;;
2892;SDS011;1456;51.840;12.184;2023-07-28T22:12:12;1.50;;;1.40;;
2892;SDS011;1456;51.840;12.184;2023-07-28T22:14:38;2.13;;;2.00;;
2892;SDS011;1456;51.840;12.184;2023-07-28T22:17:05;1.63;;;1.63;;
2892;SDS011;1456;51.840;12.184;2023-07-28T22:19:31;1.60;;;1.50;;
2892;SDS011;1456;51.840;12.184;2023-07-28T22:21:56;4.07;;;2.23;;
2892;SDS011;1456;51.840;12.184;2023-07-28T22:24:22;2.10;;;2.00;;
2892;SDS011;1456;51.840;12.184;2023-07-28T22:26:48;3.07;;;2.53;;
2892;SDS011;1456;51.840;12.184;2023-07-28T22:29:13;2.20;;;2.20;;
2892;SDS011;1456;51.840;12.184;2023-07-28T22:31:39;2.53;;;2.43;;
2892;SDS011;1456;51.840;12.184;2023-07-28T22:34:06;3.63;;;3.33;;
2892;SDS011;1456;51.840;12.184;2023-07-28T22:36:32;2.60;;;2.40;;
2892;SDS011;1456;51.840;12.184;2023-07-28T22:38:58;3.40;;;3.30;;
2892;SDS011;1456;51.840;12.184;2023-07-28T22:41:24;2.27;;;2.27;;
2892;SDS011;1456;51.840;12.184;2023-07-28T22:43:49;2.20;;;2.10;;
2892;SDS011;1456;51.840;12.184;2023-07-28T22:46:15;4.43;;;1.93;;
2892;SDS011;1456;51.840;12.184;2023-07-28T22:48:40;1.33;;;1.33;;
2892;SDS011;1456;51.840;12.184;2023-07-28T22:51:07;1.80;;;1.80;;
2892;SDS011;1456;51.840;12.184;2023-07-28T22:53:34;1.23;;;1.23;;
2892;SDS011;1456;51.840;12.184;2023-07-28T22:56:00;2.67;;;2.47;;
2892;SDS011;1456;51.840;12.184;2023-07-28T22:58:26;1.30;;;1.30;;
2892;SDS011;1456;51.840;12.184;2023-07-28T23:00:53;2.90;;;2.80;;
2892;SDS011;1456;51.840;12.184;2023-07-28T23:03:18;1.60;;;1.60;;
2892;SDS011;1456;51.840;12.184;2023-07-28T23:05:44;1.23;;;1.23;;
2892;SDS011;1456;51.840;12.184;2023-07-28T23:08:10;2.70;;;2.50;;
2892;SDS011;1456;51.840;12.184;2023-07-28T23:10:35;1.17;;;1.17;;
2892;SDS011;1456;51.840;12.184;2023-07-28T23:13:02;1.60;;;1.60;;
2892;SDS011;1456;51.840;12.184;2023-07-28T23:15:28;3.33;;;2.83;;
2892;SDS011;1456;51.840;12.184;2023-07-28T23:17:56;1.53;;;1.50;;
2892;SDS011;1456;51.840;12.184;2023-07-28T23:20:23;1.93;;;1.83;;
2892;SDS011;1456;51.840;12.184;2023-07-28T23:22:49;1.33;;;1.33;;
2892;SDS011;1456;51.840;12.184;2023-07-28T23:25:15;3.17;;;3.07;;
2892;SDS011;1456;51.840;12.184;2023-07-28T23:27:41;2.37;;;2.27;;
2892;SDS011;1456;51.840;12.184;2023-07-28T23:30:06;1.00;;;1.00;;
2892;SDS011;1456;51.840;12.184;2023-07-28T23:32:32;1.97;;;1.87;;
2892;SDS011;1456;51.840;12.184;2023-07-28T23:34:59;1.37;;;1.37;;
2892;SDS011;1456;51.840;12.184;2023-07-28T23:37:26;1.13;;;1.13;;
2892;SDS011;1456;51.840;12.184;2023-07-28T23:39:52;1.23;;;1.23;;
2892;SDS011;1456;51.840;12.184;2023-07-28T23:42:17;1.70;;;1.20;;
2892;SDS011;1456;51.840;12.184;2023-07-28T23:44:44;0.90;;;0.90;;
2892;SDS011;1456;51.840;12.184;2023-07-28T23:47:10;1.23;;;1.10;;
2892;SDS011;1456;51.840;12.184;2023-07-28T23:49:35;1.40;;;1.30;;
2892;SDS011;1456;51.840;12.184;2023-07-28T23:52:01;1.57;;;1.57;;
2892;SDS011;1456;51.840;12.184;2023-07-28T23:54:28;1.57;;;1.57;;
2892;SDS011;1456;51.840;12.184;2023-07-28T23:56:53;1.73;;;1.60;;
2892;SDS011;1456;51.840;12.184;2023-07-28T23:59:19;2.90;;;1.50;;
